createdAt,value
2018-03-29T00:01:40.458Z,1.37
2018-03-29T00:04:09.273Z,1.60
2018-03-29T00:06:38.162Z,1.60
2018-03-29T00:09:06.958Z,1.60
2018-03-29T00:11:35.750Z,1.63
2018-03-29T00:14:04.650Z,1.70
2018-03-29T00:16:33.439Z,1.50
2018-03-29T00:19:02.251Z,1.70
2018-03-29T00:21:31.041Z,1.60
2018-03-29T00:23:59.922Z,2.00
2018-03-29T00:26:28.743Z,1.57
2018-03-29T00:28:57.616Z,1.60
2018-03-29T00:31:26.433Z,1.70
2018-03-29T00:33:55.293Z,1.70
2018-03-29T00:36:24.086Z,2.07
2018-03-29T00:38:52.982Z,1.80
2018-03-29T00:41:21.798Z,1.93
2018-03-29T00:43:50.588Z,1.90
2018-03-29T00:46:19.392Z,2.23
2018-03-29T00:48:48.257Z,1.80
2018-03-29T00:51:17.075Z,1.97
2018-03-29T00:53:45.948Z,1.83
2018-03-29T00:56:14.844Z,2.13
2018-03-29T00:58:43.627Z,2.03
2018-03-29T01:01:12.424Z,2.40
2018-03-29T01:03:41.233Z,2.20
2018-03-29T01:06:10.136Z,2.10
2018-03-29T01:08:38.932Z,2.10
2018-03-29T01:11:07.807Z,2.00
2018-03-29T01:13:37.046Z,2.23
2018-03-29T01:16:05.842Z,2.40
2018-03-29T01:18:34.693Z,2.03
2018-03-29T01:21:03.586Z,2.40
2018-03-29T01:23:32.403Z,2.50
2018-03-29T01:26:01.182Z,2.40
2018-03-29T01:28:29.985Z,2.60
2018-03-29T01:30:58.790Z,2.53
2018-03-29T01:33:27.593Z,2.60
2018-03-29T01:35:56.399Z,2.70
2018-03-29T01:38:25.209Z,2.50
2018-03-29T01:40:54.015Z,2.60
2018-03-29T01:43:22.797Z,2.67
2018-03-29T01:45:51.607Z,2.40
2018-03-29T01:48:20.396Z,2.60
2018-03-29T01:50:49.206Z,2.47
2018-03-29T01:53:18.738Z,2.70
2018-03-29T01:55:47.621Z,2.87
2018-03-29T01:58:16.424Z,2.90
2018-03-29T02:00:45.233Z,2.53
2018-03-29T02:03:14.010Z,2.40
2018-03-29T02:05:42.814Z,2.43
2018-03-29T02:08:11.638Z,2.50
2018-03-29T02:10:40.427Z,2.57
2018-03-29T02:13:09.262Z,2.57
2018-03-29T02:15:38.062Z,2.60
2018-03-29T02:18:06.872Z,2.60
2018-03-29T02:20:36.481Z,2.67
2018-03-29T02:23:05.358Z,2.60
2018-03-29T02:25:34.251Z,2.87
2018-03-29T02:28:03.043Z,2.40
2018-03-29T02:30:31.864Z,2.53
2018-03-29T02:33:00.649Z,2.77
2018-03-29T02:35:29.462Z,2.40
2018-03-29T02:37:58.250Z,2.43
2018-03-29T02:40:27.056Z,2.40
2018-03-29T02:42:55.893Z,2.60
2018-03-29T02:45:24.645Z,2.90
2018-03-29T02:47:53.495Z,2.50
2018-03-29T02:50:22.390Z,2.57
2018-03-29T02:52:51.177Z,2.33
2018-03-29T02:55:19.978Z,2.70
2018-03-29T02:57:48.767Z,2.30
2018-03-29T03:00:17.582Z,2.70
2018-03-29T03:02:46.459Z,2.70
2018-03-29T03:05:15.270Z,2.47
2018-03-29T03:07:44.156Z,2.23
2018-03-29T03:10:12.966Z,2.60
2018-03-29T03:12:41.774Z,2.67
2018-03-29T03:15:10.675Z,2.80
2018-03-29T03:17:39.514Z,2.53
2018-03-29T03:20:08.330Z,2.67
2018-03-29T03:22:37.126Z,2.70
2018-03-29T03:25:05.940Z,2.50
2018-03-29T03:27:34.794Z,2.40
2018-03-29T03:30:03.596Z,2.47
2018-03-29T03:32:32.414Z,2.77
2018-03-29T03:35:01.195Z,2.60
2018-03-29T03:37:30.003Z,2.70
2018-03-29T03:39:58.839Z,2.47
2018-03-29T03:42:27.659Z,2.63
2018-03-29T03:44:56.546Z,2.60
2018-03-29T03:47:25.441Z,2.50
2018-03-29T03:49:54.688Z,2.80
2018-03-29T03:52:23.543Z,2.80
2018-03-29T03:54:52.362Z,2.63
2018-03-29T03:57:21.154Z,2.57
2018-03-29T03:59:50.022Z,2.43
2018-03-29T04:02:18.822Z,3.00
2018-03-29T04:04:47.641Z,2.50
2018-03-29T04:07:16.430Z,2.60
2018-03-29T04:09:45.293Z,2.53
2018-03-29T04:12:14.824Z,2.53
2018-03-29T04:14:43.637Z,2.47
2018-03-29T04:17:12.498Z,2.40
2018-03-29T04:19:41.291Z,2.60
2018-03-29T04:22:10.101Z,2.53
2018-03-29T04:24:38.904Z,2.30
2018-03-29T04:27:07.716Z,2.23
2018-03-29T04:29:36.524Z,2.70
2018-03-29T04:32:05.343Z,2.77
2018-03-29T04:34:34.248Z,3.17
2018-03-29T04:37:03.160Z,2.57
2018-03-29T04:39:31.970Z,2.53
2018-03-29T04:42:00.778Z,2.77
2018-03-29T04:44:29.574Z,2.53
2018-03-29T04:46:58.427Z,2.40
2018-03-29T04:49:27.290Z,2.80
2018-03-29T04:51:56.226Z,2.93
2018-03-29T04:54:25.019Z,3.00
2018-03-29T04:56:54.670Z,2.70
2018-03-29T04:59:23.490Z,2.80
2018-03-29T05:01:52.306Z,3.13
2018-03-29T05:04:21.114Z,3.10
2018-03-29T05:06:49.990Z,2.60
2018-03-29T05:09:18.804Z,2.87
2018-03-29T05:11:47.686Z,3.17
2018-03-29T05:14:16.489Z,3.03
2018-03-29T05:16:45.370Z,3.50
2018-03-29T05:19:14.167Z,3.40
2018-03-29T05:21:43.055Z,3.40
2018-03-29T05:24:11.950Z,3.07
2018-03-29T05:26:40.767Z,3.00
2018-03-29T05:29:09.554Z,3.20
2018-03-29T05:31:38.368Z,3.20
2018-03-29T05:34:07.179Z,3.00
2018-03-29T05:36:36.023Z,2.80
2018-03-29T05:39:04.811Z,3.27
2018-03-29T05:41:33.607Z,2.97
2018-03-29T05:44:02.414Z,3.00
2018-03-29T05:46:31.241Z,3.23
2018-03-29T05:49:00.087Z,3.27
2018-03-29T05:51:28.882Z,2.93
2018-03-29T05:53:57.716Z,3.20
2018-03-29T05:56:26.511Z,3.57
2018-03-29T05:58:55.315Z,3.43
2018-03-29T06:01:24.146Z,3.50
2018-03-29T06:03:53.270Z,3.30
2018-03-29T06:06:22.151Z,3.47
2018-03-29T06:08:50.968Z,2.93
2018-03-29T06:11:19.754Z,3.23
2018-03-29T06:13:54.388Z,3.40
2018-03-29T06:16:23.270Z,3.00
2018-03-29T06:19:01.986Z,3.10
2018-03-29T06:21:30.879Z,2.80
2018-03-29T06:23:59.694Z,3.27
2018-03-29T06:26:28.494Z,3.43
2018-03-29T06:28:57.353Z,3.40
2018-03-29T06:31:26.248Z,3.13
2018-03-29T06:33:55.366Z,3.13
2018-03-29T06:36:24.307Z,2.90
2018-03-29T06:38:53.062Z,3.33
2018-03-29T06:41:21.850Z,2.97
2018-03-29T06:43:50.658Z,2.97
2018-03-29T06:46:19.445Z,3.43
2018-03-29T06:48:48.326Z,3.20
2018-03-29T06:51:17.106Z,2.93
2018-03-29T06:53:45.922Z,3.10
2018-03-29T06:56:14.713Z,3.30
2018-03-29T06:58:43.591Z,3.07
2018-03-29T07:01:12.389Z,3.63
2018-03-29T07:03:41.231Z,3.77
2018-03-29T07:06:10.043Z,3.67
2018-03-29T07:08:38.854Z,3.30
2018-03-29T07:11:07.670Z,3.50
2018-03-29T07:13:36.540Z,3.30
2018-03-29T07:16:05.338Z,3.37
2018-03-29T07:18:34.153Z,5.80
2018-03-29T07:21:02.941Z,3.60
2018-03-29T07:23:31.754Z,3.07
2018-03-29T07:26:00.558Z,4.57
2018-03-29T07:28:29.409Z,4.03
2018-03-29T07:30:58.215Z,4.17
2018-03-29T07:33:27.094Z,2.80
2018-03-29T07:35:55.892Z,2.60
2018-03-29T07:38:24.699Z,2.97
2018-03-29T07:40:53.488Z,3.47
2018-03-29T07:43:22.369Z,4.00
2018-03-29T07:45:51.158Z,3.00
2018-03-29T07:48:19.950Z,2.20
2018-03-29T07:50:48.854Z,2.57
2018-03-29T07:53:18.169Z,3.80
2018-03-29T07:55:47.015Z,2.43
2018-03-29T07:58:15.809Z,2.23
2018-03-29T08:00:44.626Z,4.50
2018-03-29T08:03:13.443Z,3.00
2018-03-29T08:05:42.268Z,2.23
2018-03-29T08:08:11.083Z,2.00
2018-03-29T08:10:39.885Z,2.03
2018-03-29T08:13:08.703Z,2.07
2018-03-29T08:15:37.519Z,2.27
2018-03-29T08:18:06.335Z,1.77
2018-03-29T08:20:35.182Z,1.87
2018-03-29T08:23:04.008Z,2.17
2018-03-29T08:25:32.871Z,2.77
2018-03-29T08:28:01.678Z,2.40
2018-03-29T08:30:30.468Z,2.03
2018-03-29T08:32:59.363Z,2.00
2018-03-29T08:35:28.146Z,1.97
2018-03-29T08:37:56.966Z,1.83
2018-03-29T08:40:25.759Z,2.30
2018-03-29T08:42:54.642Z,1.97
2018-03-29T08:45:23.438Z,2.20
2018-03-29T08:47:52.258Z,2.17
2018-03-29T08:50:21.058Z,1.93
2018-03-29T08:52:49.898Z,1.90
2018-03-29T08:55:18.718Z,2.10
2018-03-29T08:57:47.590Z,1.90
2018-03-29T09:00:16.478Z,1.80
2018-03-29T09:02:45.293Z,1.70
2018-03-29T09:05:14.114Z,1.80
2018-03-29T09:07:42.917Z,1.70
2018-03-29T09:10:11.702Z,1.80
2018-03-29T09:12:40.523Z,1.67
2018-03-29T09:15:09.333Z,1.63
2018-03-29T09:17:38.132Z,1.97
2018-03-29T09:20:06.956Z,1.93
2018-03-29T09:22:35.748Z,2.00
2018-03-29T09:25:04.583Z,1.97
2018-03-29T09:27:33.414Z,1.80
2018-03-29T09:30:02.233Z,1.53
2018-03-29T09:32:31.023Z,1.80
2018-03-29T09:34:59.835Z,2.00
2018-03-29T09:37:28.633Z,1.80
2018-03-29T09:39:57.449Z,1.80
2018-03-29T09:42:26.251Z,1.93
2018-03-29T09:44:55.043Z,1.80
2018-03-29T09:47:23.960Z,1.53
2018-03-29T09:49:52.770Z,1.70
2018-03-29T09:52:21.587Z,2.10
2018-03-29T09:54:50.442Z,1.63
2018-03-29T09:57:19.243Z,1.50
2018-03-29T09:59:48.132Z,1.70
2018-03-29T10:02:18.739Z,1.70
2018-03-29T10:04:53.254Z,1.73
2018-03-29T10:07:24.027Z,1.90
2018-03-29T10:09:52.918Z,1.90
2018-03-29T10:12:21.740Z,1.87
2018-03-29T10:14:50.611Z,2.03
2018-03-29T10:17:19.414Z,1.60
2018-03-29T10:19:48.208Z,1.87
2018-03-29T10:22:17.021Z,1.60
2018-03-29T10:24:45.815Z,1.40
2018-03-29T10:27:14.612Z,1.37
2018-03-29T10:29:43.470Z,1.67
2018-03-29T10:32:12.264Z,1.53
2018-03-29T10:34:41.126Z,1.60
2018-03-29T10:37:09.914Z,1.50
2018-03-29T10:39:38.735Z,1.50
2018-03-29T10:42:07.640Z,1.80
2018-03-29T10:44:36.430Z,1.50
2018-03-29T10:47:05.236Z,1.33
2018-03-29T10:49:34.106Z,1.57
2018-03-29T10:52:02.930Z,1.43
2018-03-29T10:54:31.822Z,1.30
2018-03-29T10:57:00.626Z,1.50
2018-03-29T10:59:29.455Z,1.30
2018-03-29T11:01:58.289Z,1.40
2018-03-29T11:04:27.095Z,1.40
2018-03-29T11:06:55.910Z,1.30
2018-03-29T11:09:24.732Z,1.40
2018-03-29T11:11:53.562Z,1.50
2018-03-29T11:14:22.375Z,1.60
2018-03-29T11:16:51.269Z,2.07
2018-03-29T11:19:20.198Z,1.63
2018-03-29T11:21:49.019Z,1.90
2018-03-29T11:24:17.821Z,1.70
2018-03-29T11:26:46.696Z,1.60
2018-03-29T11:29:15.501Z,1.47
2018-03-29T11:31:44.418Z,1.77
2018-03-29T11:34:13.228Z,1.40
2018-03-29T11:36:42.030Z,1.70
2018-03-29T11:39:10.824Z,1.57
2018-03-29T11:41:39.630Z,1.70
2018-03-29T11:44:08.426Z,1.60
2018-03-29T11:46:37.230Z,1.53
2018-03-29T11:49:06.063Z,1.87
2018-03-29T11:51:34.876Z,1.70
2018-03-29T11:54:03.671Z,1.90
2018-03-29T11:56:32.489Z,1.90
2018-03-29T11:59:01.299Z,1.80
2018-03-29T12:01:30.113Z,1.90
2018-03-29T12:03:58.910Z,1.73
2018-03-29T12:06:27.726Z,1.70
2018-03-29T12:08:56.542Z,1.43
2018-03-29T12:11:25.417Z,1.70
2018-03-29T12:13:54.228Z,1.67
2018-03-29T12:16:23.018Z,1.63
2018-03-29T12:18:51.893Z,1.50
2018-03-29T12:21:20.807Z,1.77
2018-03-29T12:23:49.602Z,1.40
2018-03-29T12:26:18.414Z,1.57
2018-03-29T12:28:47.270Z,1.60
2018-03-29T12:31:16.221Z,1.40
2018-03-29T12:33:44.979Z,1.30
2018-03-29T12:36:13.766Z,1.83
2018-03-29T12:38:42.573Z,1.37
2018-03-29T12:41:11.406Z,1.30
2018-03-29T12:43:40.192Z,1.50
2018-03-29T12:46:09.014Z,1.47
2018-03-29T12:48:37.814Z,1.33
2018-03-29T12:51:06.767Z,1.40
2018-03-29T12:53:35.530Z,1.70
2018-03-29T12:56:04.339Z,1.60
2018-03-29T12:58:33.578Z,1.60
2018-03-29T13:01:02.428Z,1.60
2018-03-29T13:03:31.186Z,1.30
2018-03-29T13:06:00.061Z,1.50
2018-03-29T13:08:28.978Z,1.20
2018-03-29T13:10:57.883Z,1.40
2018-03-29T13:13:26.689Z,1.23
2018-03-29T13:15:55.505Z,1.43
2018-03-29T13:18:24.358Z,1.10
2018-03-29T13:20:53.316Z,1.40
2018-03-29T13:23:22.133Z,1.40
2018-03-29T13:25:50.922Z,1.50
2018-03-29T13:28:19.753Z,1.30
2018-03-29T13:30:48.603Z,1.20
2018-03-29T13:33:17.331Z,1.10
2018-03-29T13:35:46.145Z,1.23
2018-03-29T13:38:14.933Z,1.40
2018-03-29T13:40:43.750Z,1.50
2018-03-29T13:43:12.563Z,1.47
2018-03-29T13:45:41.379Z,1.60
2018-03-29T13:48:10.198Z,1.67
2018-03-29T13:50:38.999Z,1.70
2018-03-29T13:53:07.807Z,1.77
2018-03-29T13:55:36.599Z,1.40
2018-03-29T13:58:05.421Z,1.60
2018-03-29T14:00:34.222Z,1.80
2018-03-29T14:03:03.040Z,1.40
2018-03-29T14:05:31.974Z,1.60
2018-03-29T14:08:00.791Z,1.40
2018-03-29T14:10:29.679Z,1.40
2018-03-29T14:12:58.521Z,1.50
2018-03-29T14:15:27.421Z,1.20
2018-03-29T14:17:56.306Z,1.30
2018-03-29T14:20:25.128Z,1.30
2018-03-29T14:22:53.993Z,1.70
2018-03-29T14:25:22.782Z,1.30
2018-03-29T14:27:51.595Z,1.40
2018-03-29T14:30:20.387Z,1.27
2018-03-29T14:32:49.279Z,1.67
2018-03-29T14:35:18.068Z,1.50
2018-03-29T14:37:46.898Z,1.53
2018-03-29T14:40:15.770Z,1.37
2018-03-29T14:42:44.560Z,1.27
2018-03-29T14:45:13.367Z,1.40
2018-03-29T14:47:42.180Z,1.60
2018-03-29T14:50:10.962Z,1.23
2018-03-29T14:52:39.759Z,1.60
2018-03-29T14:55:08.604Z,1.50
2018-03-29T14:57:37.363Z,1.30
2018-03-29T15:00:06.186Z,1.30
2018-03-29T15:02:35.098Z,1.37
2018-03-29T15:05:03.994Z,1.17
2018-03-29T15:07:32.900Z,1.30
2018-03-29T15:10:01.798Z,1.20
2018-03-29T15:12:30.582Z,1.20
2018-03-29T15:14:59.469Z,1.30
2018-03-29T15:17:28.278Z,1.10
2018-03-29T15:19:57.086Z,1.10
2018-03-29T15:22:25.967Z,1.20
2018-03-29T15:24:54.865Z,1.20
2018-03-29T15:27:23.672Z,1.20
2018-03-29T15:29:52.457Z,1.30
2018-03-29T15:32:21.278Z,1.07
2018-03-29T15:34:50.131Z,0.90
2018-03-29T15:37:19.017Z,1.00
2018-03-29T15:39:47.750Z,1.10
2018-03-29T15:42:16.568Z,1.27
2018-03-29T15:44:45.350Z,1.10
2018-03-29T15:47:14.158Z,1.17
2018-03-29T15:49:43.904Z,1.10
2018-03-29T15:52:12.725Z,1.10
2018-03-29T15:54:41.538Z,1.20
2018-03-29T15:57:10.383Z,1.20
2018-03-29T15:59:39.210Z,1.13
2018-03-29T16:02:08.104Z,1.20
2018-03-29T16:04:36.898Z,1.00
2018-03-29T16:07:05.704Z,1.10
2018-03-29T16:09:34.530Z,1.10
2018-03-29T16:12:03.346Z,1.13
2018-03-29T16:14:32.130Z,1.10
2018-03-29T16:17:00.946Z,1.20
2018-03-29T16:19:29.774Z,1.30
2018-03-29T16:21:58.602Z,1.10
2018-03-29T16:24:27.445Z,0.87
2018-03-29T16:26:56.214Z,1.20
2018-03-29T16:29:25.036Z,1.10
2018-03-29T16:31:53.902Z,1.07
2018-03-29T16:34:22.758Z,1.00
2018-03-29T16:36:51.566Z,1.10
2018-03-29T16:39:20.412Z,1.10
2018-03-29T16:41:49.208Z,1.20
2018-03-29T16:44:18.036Z,1.40
2018-03-29T16:46:46.878Z,1.07
2018-03-29T16:49:15.680Z,0.93
2018-03-29T16:51:44.662Z,1.10
2018-03-29T16:54:13.490Z,1.50
2018-03-29T16:56:42.311Z,1.00
2018-03-29T16:59:11.234Z,0.80
2018-03-29T17:01:40.046Z,0.97
2018-03-29T17:04:08.884Z,0.90
2018-03-29T17:06:37.708Z,1.00
2018-03-29T17:09:06.588Z,0.80
2018-03-29T17:11:35.402Z,1.00
2018-03-29T17:14:04.214Z,0.80
2018-03-29T17:16:33.005Z,0.80
2018-03-29T17:19:01.824Z,0.93
2018-03-29T17:21:30.619Z,1.10
2018-03-29T17:23:59.433Z,0.90
2018-03-29T17:26:28.234Z,1.00
2018-03-29T17:28:57.100Z,0.90
2018-03-29T17:31:25.923Z,0.90
2018-03-29T17:33:54.724Z,0.90
2018-03-29T17:36:23.536Z,1.00
2018-03-29T17:38:52.376Z,1.03
2018-03-29T17:41:21.226Z,1.13
2018-03-29T17:43:50.086Z,1.20
2018-03-29T17:46:18.876Z,1.03
2018-03-29T17:48:47.709Z,1.10
2018-03-29T17:51:16.753Z,1.10
2018-03-29T17:53:45.614Z,1.03
2018-03-29T17:56:14.445Z,1.10
2018-03-29T17:58:43.251Z,0.97
2018-03-29T18:01:12.054Z,1.20
2018-03-29T18:03:40.829Z,1.20
2018-03-29T18:06:09.648Z,1.20
2018-03-29T18:08:38.462Z,1.00
2018-03-29T18:11:07.258Z,1.00
2018-03-29T18:13:36.066Z,1.17
2018-03-29T18:16:04.866Z,0.90
2018-03-29T18:18:33.682Z,1.20
2018-03-29T18:21:02.568Z,1.23
2018-03-29T18:23:31.330Z,2.03
2018-03-29T18:26:00.142Z,4.07
2018-03-29T18:28:29.051Z,2.97
2018-03-29T18:30:57.903Z,2.43
2018-03-29T18:33:26.793Z,1.70
2018-03-29T18:35:55.722Z,1.40
2018-03-29T18:38:24.541Z,1.63
2018-03-29T18:40:53.330Z,2.70
2018-03-29T18:43:22.138Z,3.07
2018-03-29T18:45:50.944Z,3.17
2018-03-29T18:48:19.751Z,3.63
2018-03-29T18:50:48.560Z,3.60
2018-03-29T18:53:17.454Z,3.40
2018-03-29T18:55:46.258Z,4.00
2018-03-29T18:58:15.080Z,3.77
2018-03-29T19:00:44.509Z,3.80
2018-03-29T19:03:13.326Z,3.80
2018-03-29T19:05:42.140Z,4.10
2018-03-29T19:08:10.940Z,3.73
2018-03-29T19:10:39.754Z,3.80
2018-03-29T19:13:08.642Z,3.43
2018-03-29T19:15:37.454Z,3.43
2018-03-29T19:18:06.262Z,2.93
2018-03-29T19:20:35.070Z,3.00
2018-03-29T19:23:03.891Z,3.40
2018-03-29T19:25:32.711Z,3.20
2018-03-29T19:28:01.575Z,3.10
2018-03-29T19:30:30.372Z,3.40
2018-03-29T19:32:59.190Z,4.37
2018-03-29T19:35:28.056Z,3.27
2018-03-29T19:37:56.883Z,3.33
2018-03-29T19:40:25.761Z,4.17
2018-03-29T19:42:54.967Z,4.00
2018-03-29T19:45:23.778Z,3.73
2018-03-29T19:47:52.591Z,3.83
2018-03-29T19:50:21.396Z,3.70
2018-03-29T19:52:50.210Z,3.20
2018-03-29T19:55:19.019Z,3.03
2018-03-29T19:57:47.846Z,3.30
2018-03-29T20:00:16.652Z,3.03
2018-03-29T20:02:45.470Z,3.23
2018-03-29T20:05:14.281Z,2.90
2018-03-29T20:07:43.057Z,2.87
2018-03-29T20:10:11.927Z,3.27
2018-03-29T20:12:40.841Z,3.20
2018-03-29T20:15:09.700Z,2.97
2018-03-29T20:17:38.483Z,3.00
2018-03-29T20:20:07.306Z,3.10
2018-03-29T20:22:36.101Z,2.83
2018-03-29T20:25:04.886Z,2.70
2018-03-29T20:27:33.708Z,2.73
2018-03-29T20:30:02.525Z,2.53
2018-03-29T20:32:31.864Z,3.27
2018-03-29T20:35:00.647Z,3.37
2018-03-29T20:37:29.534Z,4.67
2018-03-29T20:39:58.366Z,5.07
2018-03-29T20:42:27.203Z,4.30
2018-03-29T20:44:56.016Z,3.83
2018-03-29T20:47:24.834Z,4.13
2018-03-29T20:49:53.648Z,3.40
2018-03-29T20:52:22.466Z,3.77
2018-03-29T20:54:51.278Z,3.30
2018-03-29T20:57:20.115Z,3.37
2018-03-29T20:59:48.948Z,3.37
2018-03-29T21:02:17.860Z,3.33
2018-03-29T21:04:46.650Z,3.80
2018-03-29T21:07:15.442Z,4.17
2018-03-29T21:09:44.338Z,3.90
2018-03-29T21:12:13.157Z,3.43
2018-03-29T21:14:41.966Z,3.70
2018-03-29T21:17:10.845Z,3.90
2018-03-29T21:19:39.641Z,3.47
2018-03-29T21:22:08.511Z,3.33
2018-03-29T21:24:37.323Z,3.43
2018-03-29T21:27:06.134Z,3.17
2018-03-29T21:29:34.954Z,4.10
2018-03-29T21:32:03.890Z,3.37
2018-03-29T21:34:32.720Z,3.20
2018-03-29T21:37:01.498Z,3.37
2018-03-29T21:39:30.283Z,3.50
2018-03-29T21:41:59.095Z,3.70
2018-03-29T21:44:27.894Z,3.40
2018-03-29T21:46:56.690Z,3.70
2018-03-29T21:49:25.470Z,3.57
2018-03-29T21:51:54.343Z,3.43
2018-03-29T21:54:23.142Z,3.23
2018-03-29T21:56:51.940Z,2.90
2018-03-29T21:59:20.823Z,2.90
2018-03-29T22:01:49.625Z,2.63
2018-03-29T22:04:18.503Z,2.80
2018-03-29T22:06:47.364Z,2.67
2018-03-29T22:09:16.170Z,2.60
2018-03-29T22:11:44.965Z,2.53
2018-03-29T22:14:13.773Z,2.77
2018-03-29T22:16:42.670Z,2.33
2018-03-29T22:19:11.494Z,2.40
2018-03-29T22:21:40.374Z,2.53
2018-03-29T22:24:09.186Z,7.33
2018-03-29T22:26:37.994Z,4.97
2018-03-29T22:29:06.810Z,3.57
2018-03-29T22:31:35.622Z,3.60
2018-03-29T22:34:04.500Z,3.30
2018-03-29T22:36:33.342Z,3.50
2018-03-29T22:39:02.129Z,3.23
2018-03-29T22:41:30.925Z,3.60
2018-03-29T22:43:59.809Z,3.30
2018-03-29T22:46:28.640Z,2.93
2018-03-29T22:48:57.506Z,3.00
2018-03-29T22:51:26.305Z,3.03
2018-03-29T22:53:55.116Z,3.33
2018-03-29T22:56:23.938Z,3.50
2018-03-29T22:58:52.746Z,3.77
2018-03-29T23:01:21.535Z,3.20
2018-03-29T23:03:50.363Z,3.37
2018-03-29T23:06:19.146Z,3.40
2018-03-29T23:08:47.980Z,3.53
2018-03-29T23:11:16.868Z,3.50
2018-03-29T23:13:45.677Z,2.93
2018-03-29T23:16:14.527Z,3.30
2018-03-29T23:18:43.350Z,3.37
2018-03-29T23:21:12.150Z,3.30
2018-03-29T23:23:40.944Z,3.77
2018-03-29T23:26:09.761Z,3.97
2018-03-29T23:28:38.570Z,3.43
2018-03-29T23:31:07.383Z,3.33
2018-03-29T23:33:36.195Z,3.30
2018-03-29T23:36:04.985Z,3.47
2018-03-29T23:38:33.787Z,3.03
2018-03-29T23:41:02.661Z,3.03
2018-03-29T23:43:31.468Z,3.60
2018-03-29T23:46:00.289Z,3.40
2018-03-29T23:48:29.094Z,3.07
2018-03-29T23:50:57.902Z,2.93
2018-03-29T23:53:26.758Z,3.27
2018-03-29T23:55:55.628Z,3.07
2018-03-29T23:58:24.456Z,3.27
